| time (UTC) | temp F | wind direction | speed MPH | gust MPH | rain 1hr in | rain 24hr in | rain mn in | humidity % | barometer mb |
| 20260904070604 | 77 | 146 | 0.0 | 0.0 | 0.00 | 6.35 | 4.21 | 72 | 1015.4 |
| 20260904064605 | 77 | 103 | 0.0 | 0.0 | 0.07 | 6.35 | 4.21 | 70 | 1015.2 |
| 20260904064105 | 78 | 27 | 0.0 | 0.0 | 0.07 | 6.35 | 4.21 | 71 | 1015.2 |
| 20260904063105 | 78 | 304 | 0.0 | 0.0 | 0.07 | 6.35 | 4.21 | 69 | 1015.1 |
| 20260904061604 | 76 | 35 | 0.0 | 0.0 | 0.08 | 6.35 | 4.21 | 62 | 1015.1 |
| 20260904060106 | 74 | 39 | 0.0 | 0.0 | 2.17 | 6.35 | 4.21 | 67 | 1015.1 |
| 20260904054104 | 72 | 32 | 0.0 | 0.0 | 5.74 | 6.34 | 4.20 | 75 | 1014.8 |
| 20260904053604 | 71 | 29 | 0.0 | 0.0 | 6.68 | 6.34 | 4.20 | 78 | 1014.8 |
| 20260904053104 | 70 | 21 | 0.0 | 2.0 | 7.31 | 6.34 | 4.20 | 81 | 1014.8 |
| 20260904051604 | 69 | 30 | 0.0 | 0.0 | 7.31 | 6.34 | 4.20 | 86 | 1014.8 |
| 20260904050604 | 69 | 30 | 0.0 | 0.0 | 6.16 | 6.22 | 4.08 | 86 | 1014.8 |
| 20260904050105 | 68 | 31 | 0.0 | 0.0 | 5.90 | 6.13 | 3.99 | 86 | 1014.8 |
| 20260904044604 | 68 | 33 | 0.0 | 0.0 | 5.88 | 5.85 | 3.71 | 85 | 1014.6 |
| 20260904043605 | 68 | 32 | 0.0 | 0.0 | 5.92 | 5.67 | 3.53 | 85 | 1014.6 |
| 20260904043105 | 68 | 32 | 0.0 | 0.0 | 5.54 | 5.61 | 3.47 | 85 | 1014.6 |
| 20260904041604 | 69 | 32 | 0.0 | 0.0 | 5.81 | 5.61 | 3.47 | 86 | 1014.6 |
| 20260904040605 | 69 | 30 | 0.0 | 0.0 | 6.32 | 5.61 | 3.47 | 86 | 1014.6 |
| 20260904040106 | 69 | 32 | 0.0 | 0.0 | 5.64 | 5.54 | 3.40 | 86 | 1014.3 |
| 20260904034104 | 70 | 30 | 0.0 | 0.0 | 2.69 | 5.17 | 3.03 | 86 | 1014.3 |
| 20260904033105 | 70 | 30 | 0.0 | 0.0 | 1.49 | 5.05 | 2.91 | 87 | 1014.3 |
| 20260904031605 | 70 | 27 | 0.0 | 0.0 | 1.22 | 5.03 | 2.89 | 87 | 1014.1 |
| 20260904031104 | 70 | 27 | 0.0 | 0.0 | 0.72 | 4.98 | 2.84 | 87 | 1014.1 |
| 20260904030605 | 70 | 27 | 0.0 | 0.0 | 0.71 | 4.98 | 2.83 | 87 | 1014.1 |
| 20260904030106 | 70 | 27 | 0.0 | 0.0 | 0.71 | 4.98 | 2.83 | 87 | 1014.1 |
| 20260904023605 | 70 | 27 | 0.0 | 0.0 | 0.00 | 4.90 | 2.76 | 86 | 1014.1 |
| 20260904023104 | 70 | 27 | 0.0 | 0.0 | 0.00 | 4.90 | 2.76 | 86 | 1014.1 |
| 20260904021604 | 70 | 26 | 0.0 | 0.0 | 0.15 | 4.90 | 2.76 | 86 | 1014.0 |
| 20260904021105 | 69 | 26 | 0.0 | 0.0 | 0.32 | 4.90 | 2.76 | 86 | 1014.0 |
| 20260904020105 | 69 | 26 | 0.0 | 0.0 | 0.66 | 4.90 | 2.76 | 85 | 1014.0 |
| 20260904014604 | 69 | 26 | 0.0 | 0.0 | 0.66 | 4.90 | 2.76 | 85 | 1014.0 |
| 20260904013605 | 69 | 27 | 0.0 | 0.0 | 0.66 | 4.90 | 2.76 | 85 | 1014.0 |
| 20260904004105 | 69 | 26 | 0.0 | 0.0 | 0.00 | 4.84 | 2.70 | 86 | 1013.6 |
| 20260904001604 | 69 | 27 | 0.0 | 0.0 | 4.15 | 4.84 | 2.70 | 85 | 1013.6 |
| 20260903233605 | 70 | 27 | 0.0 | 0.0 | 9.99 | 4.79 | 2.65 | 86 | 1013.8 |
| 20260903231604 | 69 | 27 | 0.0 | 0.0 | 9.99 | 4.42 | 2.28 | 86 | 1014.1 |
| 20260903224104 | 69 | 29 | 0.0 | 0.0 | 9.99 | 3.78 | 1.64 | 87 | 1014.2 |
| 20260903223605 | 69 | 28 | 0.0 | 0.0 | 9.99 | 3.69 | 1.55 | 87 | 1014.5 |
| 20260903223104 | 69 | 27 | 0.0 | 0.0 | 9.99 | 3.60 | 1.46 | 87 | 1014.5 |
| 20260903220604 | 70 | 28 | 0.0 | 0.0 | 9.99 | 3.21 | 1.06 | 88 | 1014.2 |
| 20260903220105 | 70 | 26 | 0.0 | 0.0 | 9.89 | 3.13 | 9.89 | 88 | 1014.2 |
| 20260903214104 | 70 | 28 | 0.0 | 0.0 | 6.31 | 2.76 | 6.20 | 88 | 1013.8 |
| 20260903213604 | 70 | 26 | 0.0 | 0.0 | 5.36 | 2.66 | 5.26 | 88 | 1013.8 |
| 20260903213104 | 70 | 24 | 0.0 | 0.0 | 4.42 | 2.57 | 4.31 | 88 | 1013.8 |
| 20260903211605 | 70 | 24 | 0.0 | 0.0 | 4.62 | 2.35 | 2.15 | 88 | 1013.8 |
| 20260903211107 | 70 | 24 | 0.0 | 0.0 | 4.72 | 2.27 | 1.30 | 88 | 1013.8 |
| 20260903210604 | 70 | 24 | 0.0 | 0.0 | 4.59 | 2.17 | 0.32 | 88 | 1013.8 |
| 20260903204104 | 71 | 25 | 0.0 | 0.0 | 8.64 | 2.13 | 2.13 | 89 | 1013.8 |
| 20260903194604 | 71 | 28 | 0.0 | 0.0 | 9.99 | 1.36 | 1.36 | 88 | 1013.7 |
| 20260903194105 | 72 | 28 | 0.0 | 0.0 | 9.99 | 1.26 | 1.26 | 88 | 1013.7 |
| 20260903193104 | 71 | 26 | 0.0 | 0.0 | 9.99 | 1.08 | 1.08 | 88 | 1013.8 |
| 20260903191104 | 71 | 24 | 0.0 | 0.0 | 7.18 | 7.20 | 7.20 | 87 | 1013.8 |
| 20260903184104 | 72 | 10 | 0.0 | 0.0 | 1.78 | 1.80 | 1.80 | 85 | 1013.8 |
| 20260903183604 | 73 | 5 | 0.0 | 0.0 | 0.83 | 0.86 | 0.86 | 85 | 1013.8 |
| 20260903181105 | 73 | 5 | 0.0 | 0.0 | 0.00 | 0.02 | 0.02 | 82 | 1014.2 |
| 20260903180605 | 73 | 7 | 0.0 | 0.0 | 0.00 | 0.02 | 0.02 | 81 | 1014.2 |
| 20260903173604 | 79 | 322 | 1.0 | 7.0 | 0.00 | 0.02 | 0.02 | 68 | 1014.1 |
| 20260903173105 | 84 | 357 | 0.0 | 0.0 | 0.00 | 0.02 | 0.02 | 60 | 1014.1 |
| 20260903171604 | 86 | 0 | 0.0 | 0.0 | 0.00 | 0.02 | 0.02 | 53 | 1012.4 |
| 20260903170606 | 86 | 35 | 0.0 | 0.0 | 0.00 | 0.02 | 0.02 | 53 | 1012.4 |
| 20260903170105 | 86 | 0 | 0.0 | 0.0 | 0.00 | 0.02 | 0.02 | 53 | 1012.4 |
| 20260903164104 | 86 | 0 | 0.0 | 0.0 | 0.00 | 0.02 | 0.02 | 52 | 1012.4 |
| 20260903161604 | 88 | 0 | 0.0 | 0.0 | 0.00 | 0.02 | 0.02 | 52 | 1012.4 |
| 20260903160106 | 89 | 0 | 0.0 | 0.0 | 0.00 | 0.02 | 0.02 | 52 | 1012.2 |
| 20260903154605 | 89 | 0 | 0.0 | 0.0 | 0.00 | 0.02 | 0.02 | 51 | 1011.8 |
| 20260903153604 | 89 | 0 | 0.0 | 0.0 | 0.00 | 0.02 | 0.02 | 51 | 1011.8 |
| 20260903153105 | 89 | 0 | 0.0 | 0.0 | 0.00 | 0.02 | 0.02 | 51 | 1011.8 |
| 20260903151105 | 89 | 0 | 0.0 | 0.0 | 0.00 | 0.02 | 0.02 | 52 | 1011.7 |
| 20260903144604 | 89 | 0 | 0.0 | 0.0 | 0.00 | 0.02 | 0.02 | 56 | 1011.6 |
| 20260903144104 | 89 | 0 | 0.0 | 0.0 | 0.00 | 0.02 | 0.02 | 59 | 1011.6 |
| 20260903143105 | 90 | 0 | 0.0 | 0.0 | 0.00 | 0.02 | 0.02 | 59 | 1011.6 |
| 20260903140605 | 90 | 0 | 0.0 | 0.0 | 0.00 | 0.02 | 0.02 | 55 | 1012.5 |
| 20260903140105 | 90 | 358 | 0.0 | 0.0 | 0.00 | 0.02 | 0.02 | 55 | 1012.5 |
| 20260903134604 | 89 | 0 | 0.0 | 0.0 | 0.00 | 0.02 | 0.02 | 56 | 1012.5 |
| 20260903134104 | 89 | 355 | 0.0 | 0.0 | 0.00 | 0.02 | 0.02 | 56 | 1012.5 |
| 20260903131605 | 90 | 358 | 0.0 | 0.0 | 0.01 | 0.02 | 0.02 | 56 | 1012.5 |
| 20260903131104 | 90 | 0 | 0.0 | 0.0 | 0.01 | 0.02 | 0.02 | 57 | 1012.5 |
| 20260903130604 | 90 | 354 | 0.0 | 0.0 | 0.01 | 0.02 | 0.02 | 56 | 1012.5 |
| 20260903121605 | 90 | 349 | 0.0 | 0.0 | 0.00 | 0.02 | 0.02 | 53 | 1012.5 |
| 20260903121105 | 90 | 358 | 0.0 | 0.0 | 0.00 | 0.02 | 0.02 | 54 | 1012.5 |
| 20260903120605 | 90 | 346 | 0.0 | 0.0 | 0.00 | 0.02 | 0.02 | 54 | 1012.8 |
| 20260903120106 | 90 | 341 | 0.0 | 0.0 | 0.00 | 0.02 | 0.02 | 55 | 1012.8 |
| 20260903114605 | 89 | 326 | 0.0 | 0.0 | 0.00 | 0.02 | 0.02 | 55 | 1012.8 |
| 20260903114104 | 90 | 0 | 0.0 | 0.0 | 0.00 | 0.02 | 0.02 | 56 | 1012.8 |
| 20260903113605 | 90 | 356 | 0.0 | 0.0 | 0.00 | 0.02 | 0.02 | 55 | 1012.8 |
| 20260903111604 | 89 | 353 | 0.0 | 0.0 | 0.00 | 0.02 | 0.02 | 56 | 1013.3 |
| 20260903111104 | 89 | 333 | 0.0 | 0.0 | 0.00 | 0.02 | 0.02 | 56 | 1013.3 |
| 20260903110604 | 88 | 353 | 0.0 | 0.0 | 0.00 | 0.02 | 0.02 | 57 | 1013.3 |
| 20260903110106 | 88 | 328 | 0.0 | 0.0 | 0.00 | 0.02 | 0.02 | 58 | 1013.3 |
| 20260903104104 | 88 | 282 | 0.0 | 0.0 | 0.00 | 0.02 | 0.02 | 57 | 1013.3 |
| 20260903103604 | 88 | 354 | 0.0 | 0.0 | 0.00 | 0.02 | 0.02 | 56 | 1013.6 |
| 20260903101604 | 88 | 298 | 0.0 | 0.0 | 0.00 | 0.02 | 0.02 | 52 | 1013.6 |
| 20260903101105 | 88 | 295 | 0.0 | 0.0 | 0.00 | 0.02 | 0.02 | 53 | 1013.7 |
| 20260903100605 | 88 | 315 | 0.0 | 0.0 | 0.00 | 0.02 | 0.02 | 54 | 1013.7 |
| 20260903100105 | 88 | 280 | 0.0 | 0.0 | 0.00 | 0.02 | 0.02 | 54 | 1014.3 |
| 20260903094104 | 87 | 309 | 0.0 | 0.0 | 0.00 | 0.02 | 0.02 | 58 | 1014.3 |
| 20260903090605 | 87 | 306 | 0.0 | 0.0 | 0.00 | 0.02 | 0.02 | 54 | 1014.3 |
| 20260903090105 | 87 | 358 | 0.0 | 0.0 | 0.00 | 0.02 | 0.02 | 53 | 1014.3 |
| 20260903084604 | 85 | 0 | 0.0 | 0.0 | 0.00 | 0.02 | 0.02 | 56 | 1014.4 |
| 20260903084104 | 85 | 10 | 0.0 | 0.0 | 0.00 | 0.02 | 0.02 | 56 | 1014.4 |
| 20260903081105 | 83 | 333 | 0.0 | 0.0 | 0.00 | 0.02 | 0.02 | 63 | 1014.6 |
| 20260903080105 | 82 | 304 | 0.0 | 0.0 | 0.00 | 0.02 | 0.02 | 65 | 1014.6 |
| 20260903074604 | 81 | 319 | 0.0 | 0.0 | 0.00 | 0.02 | 0.02 | 68 | 1014.7 |
| 20260903074104 | 80 | 341 | 0.0 | 0.0 | 0.00 | 0.02 | 0.02 | 69 | 1014.7 |
| 20260903073604 | 79 | 358 | 0.0 | 0.0 | 0.00 | 0.02 | 0.02 | 70 | 1014.7 |
| 20260903073105 | 79 | 303 | 0.0 | 0.0 | 0.00 | 0.02 | 0.02 | 72 | 1014.7 |